Time;durP1;ratioP1;P1;durP2;ratioP2;P2;SDS_P1;SDS_P2;PMS_P1;PMS_P2;Temp;Humidity;BMP_temperature;BMP_pressure;BME280_temperature;BME280_humidity;BME280_pressure;Samples;Min_cycle;Max_cycle;Signal;HPM_P1;HPM_P2
2022/09/14 00:02:25;;;;;;;8.10;6.47;;;16.50;99.90;;;;;;2584319;54;20078;31
2022/09/14 00:05:04;;;;;;;8.40;6.60;;;16.40;99.90;;;;;;2585787;54;22399;31
2022/09/14 00:07:38;;;;;;;11.30;8.20;;;16.50;99.90;;;;;;2603677;46;20918;31
2022/09/14 00:10:13;;;;;;;8.52;6.00;;;16.40;99.90;;;;;;2585403;54;21186;31
2022/09/14 00:12:52;;;;;;;6.60;5.90;;;16.30;99.90;;;;;;2585407;54;19935;31
2022/09/14 00:15:29;;;;;;;8.60;6.28;;;16.30;99.90;;;;;;2585327;54;21023;31
2022/09/14 00:18:04;;;;;;;8.90;7.20;;;16.30;99.90;;;;;;2603789;46;20154;31
2022/09/14 00:20:42;;;;;;;7.70;5.97;;;16.30;99.90;;;;;;2585274;54;20277;31
2022/09/14 00:23:18;;;;;;;10.00;8.05;;;16.20;99.90;;;;;;2603841;46;20036;31
2022/09/14 00:25:53;;;;;;;10.27;6.60;;;16.20;99.90;;;;;;2585515;54;20089;31
2022/09/14 00:28:31;;;;;;;10.23;7.25;;;16.10;99.90;;;;;;2682965;39;21397;31
2022/09/14 00:31:10;;;;;;;9.88;7.72;;;16.10;99.90;;;;;;2585315;54;21571;31
2022/09/14 00:33:43;;;;;;;11.38;8.18;;;16.10;99.90;;;;;;2683031;39;20577;31
2022/09/14 00:36:23;;;;;;;7.37;6.17;;;16.00;99.90;;;;;;2585232;54;20660;31
2022/09/14 00:39:01;;;;;;;8.48;5.90;;;16.00;99.90;;;;;;2585187;54;20108;31
2022/09/14 00:41:39;;;;;;;6.65;6.03;;;16.10;99.90;;;;;;2585180;54;20786;31
2022/09/14 00:44:43;;;;;;;9.35;6.25;;;16.00;99.90;;;;;;2584586;54;22050;31
2022/09/14 00:47:21;;;;;;;10.57;8.88;;;16.00;99.90;;;;;;2603645;47;20872;31
2022/09/14 00:50:00;;;;;;;9.07;7.80;;;15.90;99.90;;;;;;2603734;47;20038;31
2022/09/14 00:52:35;;;;;;;10.90;9.80;;;15.90;99.90;;;;;;2603355;47;20037;31
2022/09/14 00:55:11;;;;;;;;;;;15.90;99.90;;;;;;2603724;47;20026;31
2022/09/14 00:57:48;;;;;;;14.25;12.50;;;15.90;99.90;;;;;;2585202;54;20831;31
2022/09/14 01:00:24;;;;;;;15.13;12.73;;;15.90;99.90;;;;;;2585305;54;20817;31
2022/09/14 01:03:01;;;;;;;16.37;13.97;;;15.90;99.90;;;;;;2603617;47;20033;31
2022/09/14 01:05:36;;;;;;;17.20;14.75;;;15.90;99.90;;;;;;2603528;47;21158;31
2022/09/14 01:08:19;;;;;;;19.15;14.48;;;15.90;99.90;;;;;;2585328;54;20030;31
2022/09/14 01:11:02;;;;;;;18.70;15.75;;;15.90;99.90;;;;;;2603535;47;22443;31
2022/09/14 01:16:15;;;;;;;24.85;19.60;;;15.80;99.90;;;;;;2584962;54;20096;31
2022/09/14 01:18:55;;;;;;;16.05;14.25;;;15.80;99.90;;;;;;2585567;54;20027;31
2022/09/14 01:21:33;;;;;;;19.13;14.93;;;15.80;99.90;;;;;;2585047;54;20971;31
2022/09/14 01:24:10;;;;;;;18.58;14.90;;;15.80;99.90;;;;;;2599121;46;20093;31
2022/09/14 01:26:55;;;;;;;17.20;15.15;;;15.80;99.90;;;;;;2604058;46;20893;31
2022/09/14 01:29:27;;;;;;;22.65;17.85;;;15.80;99.90;;;;;;2585802;54;20880;31
2022/09/14 01:32:06;;;;;;;19.73;15.00;;;15.80;99.90;;;;;;2604418;46;20050;31
2022/09/14 01:34:42;;;;;;;18.33;15.90;;;15.80;99.90;;;;;;2585996;54;20145;31
2022/09/14 01:37:20;;;;;;;15.93;13.37;;;15.70;99.90;;;;;;2585827;54;20027;31
2022/09/14 01:39:58;;;;;;;15.95;10.93;;;15.70;99.90;;;;;;2604225;46;20026;31
2022/09/14 01:42:33;;;;;;;18.30;14.70;;;15.80;99.90;;;;;;2604155;46;21032;31
2022/09/14 01:45:11;;;;;;;19.33;14.57;;;15.70;99.90;;;;;;2585511;54;20987;31
2022/09/14 01:47:52;;;;;;;13.10;11.70;;;15.80;99.90;;;;;;2585785;54;20949;31
2022/09/14 01:50:27;;;;;;;12.90;11.60;;;15.70;99.90;;;;;;2585942;54;20026;31
2022/09/14 01:53:01;;;;;;;16.20;13.43;;;15.80;99.90;;;;;;2604253;46;20795;31
2022/09/14 01:55:42;;;;;;;14.65;11.20;;;15.70;99.90;;;;;;2697143;39;21509;31
2022/09/14 01:58:18;;;;;;;12.90;10.37;;;15.70;99.90;;;;;;2585038;54;20053;31
2022/09/14 02:00:52;;;;;;;12.35;10.10;;;15.80;99.90;;;;;;2585062;54;21863;31
2022/09/14 02:03:31;;;;;;;12.70;11.40;;;15.80;99.90;;;;;;2585736;54;20026;31
2022/09/14 02:06:09;;;;;;;16.70;12.00;;;15.70;99.90;;;;;;2585488;54;20929;31
2022/09/14 02:08:43;;;;;;;13.55;11.93;;;15.70;99.90;;;;;;2585756;54;21271;31
2022/09/14 02:11:17;;;;;;;14.30;12.80;;;15.70;99.90;;;;;;2683525;39;20622;31
2022/09/14 02:13:52;;;;;;;11.90;9.90;;;15.70;99.90;;;;;;2585938;54;20044;31
2022/09/14 02:16:30;;;;;;;12.15;10.40;;;15.70;99.90;;;;;;2683443;39;20513;31
2022/09/14 02:19:07;;;;;;;13.60;10.83;;;15.70;99.90;;;;;;2754293;31;20556;31
2022/09/14 02:21:44;;;;;;;13.05;10.82;;;15.60;99.90;;;;;;2585963;54;21132;31
2022/09/14 02:24:21;;;;;;;12.25;10.50;;;15.70;99.90;;;;;;2585676;54;19958;31
2022/09/14 02:26:59;;;;;;;13.05;11.43;;;15.60;99.90;;;;;;2683774;39;22416;31
2022/09/14 02:29:33;;;;;;;11.98;10.70;;;15.60;99.90;;;;;;2585470;54;20797;31
2022/09/14 02:32:14;;;;;;;12.95;10.05;;;15.60;99.90;;;;;;2585688;54;20960;31
2022/09/14 02:34:55;;;;;;;13.05;11.73;;;15.60;99.90;;;;;;2585662;54;20760;31
2022/09/14 02:37:34;;;;;;;13.90;12.40;;;15.50;99.90;;;;;;2604218;46;20033;31
2022/09/14 02:40:14;;;;;;;11.33;9.77;;;15.50;99.90;;;;;;2585668;54;20749;31
2022/09/14 02:45:26;;;;;;;11.55;9.00;;;15.50;99.90;;;;;;2585759;54;20925;31
2022/09/14 02:48:05;;;;;;;14.00;9.00;;;15.50;99.90;;;;;;2585554;54;20870;31
2022/09/14 02:50:42;;;;;;;10.55;8.90;;;15.40;99.90;;;;;;2585526;54;20809;31
2022/09/14 02:53:17;;;;;;;12.23;9.85;;;15.40;99.90;;;;;;2683635;39;22338;31
2022/09/14 02:55:56;;;;;;;10.98;9.55;;;15.40;99.90;;;;;;2584737;54;20850;31
2022/09/14 02:58:35;;;;;;;11.07;9.50;;;15.40;99.90;;;;;;2585765;54;20026;31
2022/09/14 03:01:11;;;;;;;9.70;8.65;;;15.40;99.90;;;;;;2585688;54;20243;31
2022/09/14 03:03:47;;;;;;;11.05;9.70;;;15.40;99.90;;;;;;2585811;54;20026;31
2022/09/14 03:06:24;;;;;;;13.27;11.60;;;15.30;99.90;;;;;;2585822;54;20030;31
2022/09/14 03:09:02;;;;;;;11.43;9.60;;;15.30;99.90;;;;;;2585572;54;20924;31
2022/09/14 03:11:37;;;;;;;12.40;8.97;;;15.30;99.90;;;;;;2754674;31;22463;31
2022/09/14 03:14:12;;;;;;;9.93;7.93;;;15.30;99.90;;;;;;2603858;46;20916;31
2022/09/14 03:16:47;;;;;;;11.27;9.73;;;15.30;99.90;;;;;;2585859;54;20030;31
2022/09/14 03:19:21;;;;;;;11.90;9.05;;;15.20;99.90;;;;;;2585600;54;20938;31
2022/09/14 03:21:57;;;;;;;12.55;8.15;;;15.20;99.90;;;;;;2585784;54;22458;31
2022/09/14 03:24:32;;;;;;;10.38;8.63;;;15.20;99.90;;;;;;2585363;54;25116;31
2022/09/14 03:27:07;;;;;;;8.90;8.00;;;15.20;99.90;;;;;;2585506;54;20893;31
2022/09/14 03:29:42;;;;;;;10.90;9.40;;;15.20;99.90;;;;;;2585516;54;20096;31
2022/09/14 03:32:15;;;;;;;11.68;9.75;;;15.20;99.90;;;;;;2584878;54;21896;31
2022/09/14 03:34:50;;;;;;;12.40;8.90;;;15.10;99.90;;;;;;2585611;54;20134;31
2022/09/14 03:37:26;;;;;;;14.20;11.60;;;15.20;99.90;;;;;;2585569;54;20164;31
2022/09/14 03:40:02;;;;;;;11.68;9.13;;;15.10;99.90;;;;;;2585497;54;20140;31
2022/09/14 03:42:36;;;;;;;13.05;10.23;;;15.20;99.90;;;;;;2585409;54;20049;31
2022/09/14 03:45:12;;;;;;;10.85;9.13;;;15.00;99.90;;;;;;2585507;54;20110;31
2022/09/14 03:47:48;;;;;;;9.75;8.63;;;15.00;99.90;;;;;;2603823;46;20057;31
2022/09/14 03:50:23;;;;;;;12.55;10.45;;;15.00;99.90;;;;;;2604084;46;20914;31
2022/09/14 03:52:58;;;;;;;10.70;8.70;;;14.90;99.90;;;;;;2598306;46;19934;31
2022/09/14 03:55:34;;;;;;;10.25;9.13;;;15.00;99.90;;;;;;2603930;46;21463;31
2022/09/14 03:58:07;;;;;;;15.80;10.05;;;14.90;99.90;;;;;;2701984;39;22321;31
2022/09/14 04:00:42;;;;;;;10.48;7.70;;;14.90;99.90;;;;;;2585295;54;20780;31
2022/09/14 04:03:17;;;;;;;11.13;8.33;;;14.90;99.90;;;;;;2585039;54;20071;31
2022/09/14 04:06:04;;;;;;;13.70;11.10;;;14.90;99.90;;;;;;2599750;46;20030;31
2022/09/14 04:08:38;;;;;;;12.70;8.60;;;14.90;99.90;;;;;;2603288;46;21143;31
2022/09/14 04:11:20;;;;;;;9.75;8.75;;;14.90;99.90;;;;;;2584380;54;19969;31
2022/09/14 04:13:55;;;;;;;10.35;7.85;;;14.80;99.90;;;;;;2585112;54;21050;31
2022/09/14 04:16:30;;;;;;;12.18;9.68;;;14.70;99.90;;;;;;2603530;46;21027;31
2022/09/14 04:19:04;;;;;;;12.67;8.83;;;14.70;99.90;;;;;;2585591;54;20049;31
2022/09/14 04:21:42;;;;;;;;;;;14.70;99.90;;;;;;2585769;54;21302;31
2022/09/14 04:24:23;;;;;;;9.95;8.10;;;14.70;99.90;;;;;;2584541;54;19943;31
2022/09/14 04:27:06;;;;;;;11.20;9.10;;;14.70;99.90;;;;;;2585354;54;20954;31
2022/09/14 04:29:39;;;;;;;15.77;12.45;;;14.70;99.90;;;;;;2603684;46;20257;31
2022/09/14 04:32:14;;;;;;;11.10;9.07;;;14.70;99.90;;;;;;2585480;54;20920;31
2022/09/14 04:34:50;;;;;;;17.95;12.55;;;14.70;99.90;;;;;;2603842;47;20022;31
2022/09/14 04:39:58;;;;;;;12.70;11.05;;;14.70;99.90;;;;;;2585295;54;20060;31
2022/09/14 04:42:41;;;;;;;11.85;10.10;;;14.70;99.90;;;;;;2584447;54;21046;31
2022/09/14 04:45:17;;;;;;;12.43;10.10;;;14.70;99.90;;;;;;2584172;54;20914;31
2022/09/14 04:47:52;;;;;;;14.57;10.37;;;14.70;99.90;;;;;;2584111;54;20989;31
2022/09/14 04:50:28;;;;;;;13.05;9.40;;;14.70;99.90;;;;;;2603983;47;20910;31
2022/09/14 04:53:08;;;;;;;19.50;12.82;;;14.70;99.90;;;;;;2585279;54;20065;31
2022/09/14 04:55:41;;;;;;;16.70;11.40;;;14.70;99.90;;;;;;2585987;54;20895;31
2022/09/14 04:58:20;;;;;;;12.07;10.70;;;14.70;99.90;;;;;;2599857;46;22022;31
2022/09/14 05:00:57;;;;;;;14.30;11.45;;;14.70;99.90;;;;;;2585958;54;20917;31
2022/09/14 05:03:30;;;;;;;13.57;10.30;;;14.70;99.90;;;;;;2585807;54;21106;31
2022/09/14 05:06:05;;;;;;;13.65;9.75;;;14.70;99.90;;;;;;2585923;54;20563;31
2022/09/14 05:08:39;;;;;;;17.35;13.35;;;14.70;99.90;;;;;;2604586;46;20912;31
2022/09/14 05:11:14;;;;;;;13.40;10.60;;;14.70;99.90;;;;;;2586154;54;19961;31
2022/09/14 05:13:54;;;;;;;17.55;13.15;;;14.70;99.90;;;;;;2585056;54;20927;31
2022/09/14 05:16:31;;;;;;;14.88;12.15;;;14.80;99.90;;;;;;2585872;54;20049;31
2022/09/14 05:19:05;;;;;;;14.90;11.68;;;14.80;99.90;;;;;;2604527;46;20850;31
2022/09/14 05:21:39;;;;;;;13.67;12.07;;;14.80;99.90;;;;;;2604575;46;20030;31
2022/09/14 05:24:15;;;;;;;22.52;16.63;;;14.80;99.90;;;;;;2584936;54;20249;31
2022/09/14 05:26:48;;;;;;;;;;;14.80;99.90;;;;;;2585219;54;20031;31
2022/09/14 05:29:24;;;;;;;32.63;19.17;;;14.90;99.90;;;;;;2585586;54;20815;31
2022/09/14 05:31:59;;;;;;;25.50;18.83;;;14.90;99.90;;;;;;2584964;54;20093;31
2022/09/14 05:34:32;;;;;;;20.48;15.60;;;14.90;99.90;;;;;;2585173;54;20027;31
2022/09/14 05:37:07;;;;;;;29.20;21.73;;;14.90;99.90;;;;;;2585535;54;20593;31
2022/09/14 05:39:42;;;;;;;36.42;26.02;;;15.00;99.90;;;;;;2604433;46;20081;31
2022/09/14 05:42:17;;;;;;;40.97;28.90;;;15.00;99.90;;;;;;2586026;54;20909;31
2022/09/14 05:45:00;;;;;;;49.25;33.25;;;15.00;99.90;;;;;;2604625;46;20833;31
2022/09/14 05:47:34;;;;;;;55.97;36.43;;;15.10;99.90;;;;;;2585525;54;20026;31
2022/09/14 05:50:16;;;;;;;54.53;37.67;;;15.10;99.90;;;;;;2595735;46;20929;31
2022/09/14 05:52:51;;;;;;;41.90;31.35;;;15.10;99.90;;;;;;2684131;39;22338;31
2022/09/14 05:55:27;;;;;;;45.00;34.90;;;15.20;99.90;;;;;;2604242;46;25035;31
2022/09/14 05:58:03;;;;;;;44.45;32.38;;;15.20;99.90;;;;;;2585720;54;20880;31
2022/09/14 06:00:38;;;;;;;41.80;30.70;;;15.20;99.90;;;;;;2683954;39;21046;31
2022/09/14 06:03:15;;;;;;;32.05;25.65;;;15.30;99.90;;;;;;2585606;54;20081;31
2022/09/14 06:05:53;;;;;;;33.88;25.95;;;15.40;99.90;;;;;;2585243;54;20894;31
2022/09/14 06:08:32;;;;;;;35.22;26.75;;;15.50;99.90;;;;;;2585909;54;20031;31
2022/09/14 06:11:08;;;;;;;35.53;26.52;;;15.50;99.90;;;;;;2585514;54;20030;31
2022/09/14 06:13:43;;;;;;;33.33;25.50;;;15.50;99.90;;;;;;2585702;54;20764;31
2022/09/14 06:16:19;;;;;;;32.20;23.70;;;15.50;99.90;;;;;;2585693;54;19957;31
2022/09/14 06:18:57;;;;;;;33.93;23.30;;;15.60;99.90;;;;;;2604320;46;20053;31
2022/09/14 06:23:59;;;;;;;29.25;20.45;;;15.70;99.90;;;;;;2585289;54;20831;31
2022/09/14 06:26:34;;;;;;;27.50;20.90;;;15.80;99.90;;;;;;2584781;54;20033;31
2022/09/14 06:29:09;;;;;;;17.38;15.57;;;15.90;99.90;;;;;;2585881;54;20903;31
2022/09/14 06:31:45;;;;;;;28.10;19.08;;;15.90;99.90;;;;;;2585609;54;20928;31
2022/09/14 06:34:22;;;;;;;20.42;17.42;;;16.00;99.90;;;;;;2585885;54;20031;31
2022/09/14 06:36:57;;;;;;;24.08;15.35;;;16.10;99.90;;;;;;2585692;54;21060;31
2022/09/14 06:39:31;;;;;;;21.80;17.50;;;16.30;99.90;;;;;;2585579;54;20053;31
2022/09/14 06:42:07;;;;;;;21.35;17.05;;;16.50;99.90;;;;;;2585427;54;21014;31
2022/09/14 06:44:45;;;;;;;18.88;15.00;;;16.70;99.90;;;;;;2603633;46;20078;31
2022/09/14 06:47:21;;;;;;;19.88;14.57;;;16.90;99.90;;;;;;2585407;54;20789;31
2022/09/14 06:49:57;;;;;;;17.88;14.00;;;17.10;99.90;;;;;;2585595;54;20031;31
2022/09/14 06:52:32;;;;;;;17.80;13.73;;;17.30;99.90;;;;;;2595749;46;21173;31
2022/09/14 06:55:09;;;;;;;14.65;13.10;;;17.30;99.90;;;;;;2584696;54;20042;31
2022/09/14 06:57:49;;;;;;;15.60;13.60;;;17.40;99.90;;;;;;2584795;54;20179;31
2022/09/14 07:00:23;;;;;;;18.98;14.50;;;17.40;99.90;;;;;;2584776;54;20105;31
2022/09/14 07:02:58;;;;;;;15.00;13.40;;;17.40;99.90;;;;;;2584871;54;20089;31
2022/09/14 07:05:39;;;;;;;14.90;12.70;;;17.40;99.90;;;;;;2701950;39;20532;31
2022/09/14 07:08:15;;;;;;;18.80;13.85;;;17.40;99.90;;;;;;2584858;54;21265;31
2022/09/14 07:10:58;;;;;;;19.45;13.80;;;17.40;99.90;;;;;;2585390;54;20914;31
2022/09/14 07:13:34;;;;;;;16.98;14.02;;;17.50;99.90;;;;;;2585351;54;20713;31
2022/09/14 07:16:09;;;;;;;17.45;13.90;;;17.50;99.90;;;;;;2585541;54;20053;31
2022/09/14 07:18:44;;;;;;;15.40;13.75;;;17.50;99.90;;;;;;2598422;46;20085;31
2022/09/14 07:21:22;;;;;;;18.10;12.80;;;17.60;99.90;;;;;;2584475;54;20069;31
2022/09/14 07:23:59;;;;;;;15.20;11.90;;;17.70;99.90;;;;;;2585424;54;20921;31
2022/09/14 07:26:38;;;;;;;16.20;11.70;;;17.70;99.90;;;;;;2683088;39;20460;31
2022/09/14 07:29:15;;;;;;;13.10;11.60;;;17.80;99.90;;;;;;2585465;54;20030;31
2022/09/14 07:31:50;;;;;;;16.13;12.05;;;17.90;99.90;;;;;;2585133;54;20054;31
2022/09/14 07:34:25;;;;;;;14.20;11.50;;;18.00;99.90;;;;;;2603745;46;20104;31
2022/09/14 07:37:02;;;;;;;13.83;9.63;;;18.10;99.90;;;;;;2584433;54;20909;31
2022/09/14 07:39:37;;;;;;;12.65;9.70;;;18.10;99.90;;;;;;2585334;54;20925;31
2022/09/14 07:42:12;;;;;;;12.85;10.65;;;18.20;99.90;;;;;;2584996;54;20089;31
2022/09/14 07:44:46;;;;;;;12.63;9.23;;;18.20;99.90;;;;;;2585670;54;20050;31
2022/09/14 07:47:21;;;;;;;10.00;8.18;;;18.30;99.90;;;;;;2585419;54;21030;31
2022/09/14 07:49:58;;;;;;;10.73;9.60;;;18.40;99.90;;;;;;2585398;54;20845;31
2022/09/14 07:52:37;;;;;;;11.20;8.15;;;18.50;99.90;;;;;;2603686;46;20026;31
2022/09/14 07:55:14;;;;;;;13.23;7.87;;;18.50;99.90;;;;;;2585374;54;20974;31
2022/09/14 07:57:48;;;;;;;12.55;7.65;;;18.60;99.90;;;;;;2603647;46;20037;31
2022/09/14 08:00:29;;;;;;;12.35;7.05;;;18.60;99.90;;;;;;2585104;54;20783;31
2022/09/14 08:03:02;;;;;;;9.90;6.68;;;18.60;99.90;;;;;;2603841;46;22522;31
2022/09/14 08:05:37;;;;;;;10.20;6.80;;;18.70;99.90;;;;;;2702347;39;22298;31
2022/09/14 08:08:15;;;;;;;9.00;5.60;;;18.60;99.90;;;;;;2603671;46;20045;31
2022/09/14 08:10:49;;;;;;;11.20;5.60;;;18.70;99.90;;;;;;2585630;54;20237;31
2022/09/14 08:13:24;;;;;;;8.77;5.20;;;18.70;99.90;;;;;;2584784;54;20074;31
2022/09/14 08:15:59;;;;;;;7.38;4.60;;;18.80;99.90;;;;;;2584952;54;20030;31
2022/09/14 08:18:35;;;;;;;;;;;18.80;99.90;;;;;;2584794;54;20754;31
2022/09/14 08:21:09;;;;;;;11.10;5.80;;;18.80;99.90;;;;;;2584469;54;19970;31
2022/09/14 08:23:48;;;;;;;8.20;5.20;;;18.80;99.90;;;;;;2585507;54;22455;31
2022/09/14 08:26:29;;;;;;;9.05;5.00;;;18.90;99.90;;;;;;2584363;54;20942;31
2022/09/14 08:31:33;;;;;;;8.70;4.80;;;19.00;99.90;;;;;;2603296;46;21059;31
2022/09/14 08:34:10;;;;;;;7.07;3.95;;;19.10;99.90;;;;;;2585276;54;19934;31
2022/09/14 08:36:44;;;;;;;9.38;4.30;;;19.10;99.90;;;;;;2585514;54;20885;31
2022/09/14 08:39:21;;;;;;;9.25;5.57;;;19.20;99.90;;;;;;2585313;54;19940;31
2022/09/14 08:41:57;;;;;;;10.27;5.50;;;19.20;99.90;;;;;;2585371;54;20978;31
2022/09/14 08:44:33;;;;;;;10.90;5.60;;;19.20;99.90;;;;;;2585350;54;19934;31
2022/09/14 08:47:11;;;;;;;7.35;5.30;;;19.20;99.90;;;;;;2584211;54;21261;31
2022/09/14 08:49:50;;;;;;;8.25;4.50;;;19.30;99.90;;;;;;2585089;54;20990;31
2022/09/14 08:52:28;;;;;;;7.55;4.75;;;19.30;99.90;;;;;;2585333;54;21000;31
2022/09/14 08:55:12;;;;;;;9.60;4.32;;;19.40;99.90;;;;;;2594314;47;20831;31
2022/09/14 08:57:49;;;;;;;8.55;4.30;;;19.40;99.90;;;;;;2585292;54;20022;31
2022/09/14 09:00:24;;;;;;;9.02;3.20;;;19.40;99.90;;;;;;2585296;54;20958;31
2022/09/14 09:03:17;;;;;;;6.78;3.10;;;19.40;99.90;;;;;;2603524;47;20117;31
2022/09/14 09:05:57;;;;;;;;;;;19.50;99.90;;;;;;2603660;47;21888;31
2022/09/14 09:08:34;;;;;;;7.32;3.05;;;19.50;99.90;;;;;;2584186;54;19964;31
2022/09/14 09:11:17;;;;;;;4.90;3.00;;;19.50;99.90;;;;;;2585252;54;20798;31
2022/09/14 09:13:54;;;;;;;7.30;3.42;;;19.50;99.90;;;;;;2585316;54;20034;31
2022/09/14 09:16:35;;;;;;;9.10;3.95;;;19.50;99.90;;;;;;2585290;54;20985;31
2022/09/14 09:19:13;;;;;;;5.00;3.17;;;19.50;99.90;;;;;;2585129;54;20905;31
2022/09/14 09:21:48;;;;;;;4.70;2.90;;;19.70;99.90;;;;;;2585165;54;20249;31
2022/09/14 09:24:29;;;;;;;5.68;2.95;;;19.70;99.90;;;;;;2603756;47;21889;31
2022/09/14 09:27:15;;;;;;;8.13;3.15;;;19.80;99.90;;;;;;2585247;54;20907;31
2022/09/14 09:29:49;;;;;;;7.07;2.92;;;19.90;99.90;;;;;;2584888;54;20819;31
2022/09/14 09:32:27;;;;;;;13.60;3.70;;;19.90;99.90;;;;;;2584985;54;19941;31
2022/09/14 09:35:22;;;;;;;10.03;2.73;;;19.90;99.90;;;;;;2585216;54;20246;31
2022/09/14 09:38:16;;;;;;;12.70;3.50;;;19.90;99.90;;;;;;2753715;31;21152;31
2022/09/14 09:40:56;;;;;;;6.15;2.70;;;19.90;99.90;;;;;;2586073;54;20871;31
2022/09/14 09:43:34;;;;;;;7.53;3.60;;;19.90;99.90;;;;;;2604110;46;20026;31
2022/09/14 09:46:26;;;;;;;8.75;3.00;;;19.90;99.90;;;;;;2683484;39;21487;31
2022/09/14 09:49:01;;;;;;;4.75;2.60;;;19.90;99.90;;;;;;2593324;46;19943;31
2022/09/14 09:51:36;;;;;;;8.77;3.00;;;19.90;99.90;;;;;;2585897;54;20914;31
2022/09/14 09:54:23;;;;;;;4.82;2.42;;;19.90;99.90;;;;;;2585682;54;20097;31
2022/09/14 09:56:58;;;;;;;6.95;2.95;;;19.90;99.90;;;;;;2585889;54;20026;31
2022/09/14 09:59:37;;;;;;;10.88;3.15;;;19.90;99.90;;;;;;2585925;54;20037;31
2022/09/14 10:02:26;;;;;;;5.97;2.67;;;19.90;99.90;;;;;;2584866;54;20050;31
2022/09/14 10:05:24;;;;;;;5.30;2.40;;;19.90;99.90;;;;;;2585649;54;21000;31
2022/09/14 10:08:00;;;;;;;10.98;3.20;;;19.90;99.90;;;;;;2585193;54;20909;31
2022/09/14 10:10:43;;;;;;;6.90;4.00;;;20.00;99.90;;;;;;2585501;54;21029;31
2022/09/14 10:13:24;;;;;;;10.10;3.60;;;20.00;99.90;;;;;;2585671;54;20953;31
2022/09/14 10:16:10;;;;;;;9.20;3.50;;;19.90;99.90;;;;;;2585690;54;19950;31
2022/09/14 10:18:46;;;;;;;7.43;3.13;;;20.00;99.90;;;;;;2585468;54;20264;31
2022/09/14 10:21:22;;;;;;;8.80;3.80;;;19.90;99.90;;;;;;2585737;54;20030;31
2022/09/14 10:24:07;;;;;;;9.23;3.03;;;20.00;99.90;;;;;;2585900;54;19935;31
2022/09/14 10:26:41;;;;;;;5.73;3.03;;;20.10;99.90;;;;;;2585352;54;20285;31
2022/09/14 10:29:31;;;;;;;9.85;3.92;;;20.10;99.90;;;;;;2584736;54;20821;31
2022/09/14 10:32:17;;;;;;;8.52;3.88;;;20.00;99.90;;;;;;2585710;54;20145;31
2022/09/14 10:34:52;;;;;;;6.43;4.15;;;20.00;99.90;;;;;;2585655;54;20974;31
2022/09/14 10:37:34;;;;;;;6.18;4.10;;;20.00;99.90;;;;;;2585452;54;20042;31
2022/09/14 10:40:15;;;;;;;8.52;3.45;;;19.90;99.90;;;;;;2604041;46;20805;31
2022/09/14 10:42:59;;;;;;;9.98;4.93;;;20.00;99.90;;;;;;2585626;54;21000;31
2022/09/14 10:45:37;;;;;;;12.10;6.30;;;20.00;99.90;;;;;;2585530;54;21868;31
2022/09/14 10:48:37;;;;;;;8.02;4.65;;;20.10;99.90;;;;;;2584511;54;20855;31
2022/09/14 10:51:31;;;;;;;9.10;4.03;;;20.40;99.90;;;;;;2585108;54;20889;31
2022/09/14 10:54:16;;;;;;;9.85;3.95;;;20.40;99.90;;;;;;2585727;54;20030;31
2022/09/14 10:56:57;;;;;;;7.40;4.50;;;20.50;99.90;;;;;;2585678;54;19961;31
2022/09/14 10:59:34;;;;;;;9.20;4.40;;;20.50;99.90;;;;;;2604296;46;20053;31
2022/09/14 11:02:17;;;;;;;6.80;4.32;;;20.50;99.90;;;;;;2585211;54;20066;31
2022/09/14 11:05:03;;;;;;;13.98;5.15;;;20.50;99.90;;;;;;2585550;54;20893;31
2022/09/14 11:07:40;;;;;;;7.88;4.30;;;20.40;99.90;;;;;;2603984;46;20027;31
2022/09/14 11:10:21;;;;;;;6.85;4.10;;;20.40;99.90;;;;;;2585671;54;21108;31
2022/09/14 11:13:05;;;;;;;13.03;4.70;;;20.30;99.90;;;;;;2584553;54;20088;31
2022/09/14 11:15:42;;;;;;;9.18;4.22;;;20.30;99.90;;;;;;2585703;54;20238;31
2022/09/14 11:18:23;;;;;;;7.13;4.03;;;20.20;99.90;;;;;;2584380;54;20891;31
2022/09/14 11:21:38;;;;;;;6.60;3.97;;;20.20;99.90;;;;;;2585551;54;21124;31
2022/09/14 11:24:13;;;;;;;10.02;4.68;;;20.20;99.90;;;;;;2585276;54;20030;31
2022/09/14 11:26:52;;;;;;;6.80;3.87;;;20.20;99.90;;;;;;2585404;54;20998;31
2022/09/14 11:29:27;;;;;;;8.48;4.07;;;20.20;99.90;;;;;;2604033;46;20769;31
2022/09/14 11:32:03;;;;;;;5.90;4.53;;;20.30;99.90;;;;;;2584548;54;21144;31
2022/09/14 11:34:58;;;;;;;7.95;4.57;;;20.30;99.90;;;;;;2585608;54;20045;31
2022/09/14 11:37:40;;;;;;;6.75;4.40;;;20.30;99.90;;;;;;2683581;39;21011;31
2022/09/14 11:40:18;;;;;;;9.35;4.30;;;20.40;99.90;;;;;;2585543;54;20975;31
2022/09/14 11:42:58;;;;;;;8.45;4.30;;;20.50;99.90;;;;;;2585180;54;20697;31
2022/09/14 11:45:48;;;;;;;7.70;4.40;;;20.50;99.90;;;;;;2584690;54;20907;31
2022/09/14 11:48:30;;;;;;;10.20;4.43;;;20.60;99.90;;;;;;2585357;54;20022;31
2022/09/14 11:51:18;;;;;;;10.00;4.85;;;20.60;99.90;;;;;;2585317;54;20798;31
2022/09/14 11:53:59;;;;;;;7.35;3.90;;;20.70;99.90;;;;;;2585161;54;20776;31
2022/09/14 11:56:35;;;;;;;5.30;4.20;;;20.60;99.90;;;;;;2585418;54;20886;31
2022/09/14 11:59:09;;;;;;;7.43;4.60;;;20.80;99.90;;;;;;2585484;54;19934;31
2022/09/14 12:01:45;;;;;;;12.25;5.35;;;20.80;99.90;;;;;;2585327;54;20880;31
2022/09/14 12:04:19;;;;;;;11.32;4.80;;;20.90;99.90;;;;;;2585552;54;20145;31
2022/09/14 12:06:58;;;;;;;11.75;4.95;;;21.10;99.90;;;;;;2584992;54;20969;31
2022/09/14 12:09:55;;;;;;;10.75;4.28;;;21.20;99.90;;;;;;2584770;54;20156;31
2022/09/14 12:13:00;;;;;;;9.20;4.05;;;21.40;99.90;;;;;;2585344;54;21017;31
2022/09/14 12:15:40;;;;;;;7.90;4.40;;;21.40;99.90;;;;;;2596592;46;20880;31
2022/09/14 12:18:21;;;;;;;6.38;3.80;;;21.40;99.90;;;;;;2585120;54;20227;31
2022/09/14 12:21:04;;;;;;;8.48;4.03;;;21.40;99.90;;;;;;2585197;54;20053;31
2022/09/14 12:23:56;;;;;;;7.60;4.20;;;21.40;99.90;;;;;;2585265;54;20973;31
2022/09/14 12:26:36;;;;;;;13.00;6.22;;;21.50;99.90;;;;;;2603303;46;20117;31
2022/09/14 12:29:36;;;;;;;9.73;4.30;;;21.50;99.90;;;;;;2587608;46;20040;31
2022/09/14 12:32:27;;;;;;;9.95;3.50;;;21.50;99.90;;;;;;2584976;54;20026;31
2022/09/14 12:35:32;;;;;;;13.20;5.13;;;21.50;99.90;;;;;;2585195;54;20907;31
2022/09/14 12:38:06;;;;;;;6.95;3.72;;;21.50;99.90;;;;;;2585303;54;21108;31
2022/09/14 12:40:43;;;;;;;6.97;3.75;;;21.50;99.90;;;;;;2585317;54;20033;31
2022/09/14 12:43:51;;;;;;;6.87;4.63;;;21.60;99.90;;;;;;2585288;54;20848;31
2022/09/14 12:46:53;;;;;;;10.20;4.60;;;21.60;99.90;;;;;;2585129;54;20939;31
2022/09/14 12:49:36;;;;;;;7.00;4.90;;;21.70;99.90;;;;;;2585172;54;20921;31
2022/09/14 12:53:02;;;;;;;10.10;5.10;;;21.80;99.90;;;;;;2585432;54;20033;31
2022/09/14 12:55:56;;;;;;;9.10;4.80;;;21.70;99.90;;;;;;2682934;39;21075;31
2022/09/14 12:58:28;;;;;;;10.32;4.60;;;21.80;99.90;;;;;;2585115;54;20050;31
2022/09/14 13:01:12;;;;;;;6.10;4.15;;;21.80;99.90;;;;;;2585311;54;20926;31
2022/09/14 13:03:52;;;;;;;7.80;4.60;;;21.70;99.90;;;;;;2585341;54;21011;31
2022/09/14 13:06:43;;;;;;;9.32;5.18;;;21.60;99.90;;;;;;2584110;54;20031;31
2022/09/14 13:09:20;;;;;;;9.73;4.80;;;21.60;99.90;;;;;;2683130;39;21055;31
2022/09/14 13:11:59;;;;;;;7.90;4.23;;;21.60;99.90;;;;;;2603758;47;20030;31
2022/09/14 13:14:36;;;;;;;9.30;4.80;;;21.50;99.90;;;;;;2585291;54;20026;31
2022/09/14 13:17:12;;;;;;;13.43;4.93;;;21.40;99.90;;;;;;2585982;54;20026;31
2022/09/14 13:19:55;;;;;;;9.10;4.82;;;21.50;99.90;;;;;;2586098;54;21032;31
2022/09/14 13:22:30;;;;;;;14.30;5.60;;;21.50;99.90;;;;;;2585531;54;20097;31
2022/09/14 13:27:35;;;;;;;9.60;4.75;;;21.60;99.90;;;;;;2586294;54;21272;31
2022/09/14 13:30:18;;;;;;;10.50;5.80;;;21.60;99.90;;;;;;2594247;39;22493;31
2022/09/14 13:32:53;;;;;;;13.10;5.63;;;21.70;99.90;;;;;;2585302;54;20231;31
2022/09/14 13:35:31;;;;;;;10.15;6.22;;;21.60;99.90;;;;;;2755057;31;22674;31
2022/09/14 13:38:09;;;;;;;8.50;4.90;;;21.60;99.90;;;;;;2585514;54;20966;31
2022/09/14 13:40:41;;;;;;;7.63;4.57;;;21.40;99.90;;;;;;2683962;39;22211;31
2022/09/14 13:43:16;;;;;;;11.35;6.40;;;21.50;99.90;;;;;;2585566;54;20794;31
2022/09/14 13:45:48;;;;;;;9.63;5.82;;;21.40;99.90;;;;;;2586130;54;21151;31
2022/09/14 13:48:21;;;;;;;13.70;12.30;;;21.30;99.90;;;;;;2585963;54;20908;31
2022/09/14 13:51:00;;;;;;;11.30;6.57;;;21.30;99.90;;;;;;2585267;54;19941;31
2022/09/14 13:53:34;;;;;;;13.80;6.55;;;21.30;99.90;;;;;;2585869;54;20038;31
2022/09/14 13:56:22;;;;;;;11.20;8.80;;;21.20;99.90;;;;;;2585581;54;20691;31
2022/09/14 13:59:21;;;;;;;8.27;5.80;;;21.20;99.90;;;;;;2585877;54;20033;31
2022/09/14 14:01:57;;;;;;;7.50;5.60;;;21.30;99.90;;;;;;2585696;54;20036;31
2022/09/14 14:04:35;;;;;;;9.07;6.47;;;21.30;99.90;;;;;;2585575;54;21155;31